createdAt,value
2022-10-13T00:00:54.870Z,92.80
2022-10-13T00:03:21.663Z,93.10
2022-10-13T00:05:50.707Z,92.60
2022-10-13T00:08:20.513Z,92.60
2022-10-13T00:10:49.439Z,92.50
2022-10-13T00:13:16.855Z,92.80
2022-10-13T00:15:45.644Z,93.10
2022-10-13T00:18:13.048Z,92.90
2022-10-13T00:20:50.004Z,92.90
2022-10-13T00:23:17.966Z,92.60
2022-10-13T00:25:49.237Z,92.50
2022-10-13T00:28:18.134Z,92.00
2022-10-13T00:30:45.655Z,91.80
2022-10-13T00:33:13.426Z,91.50
2022-10-13T00:35:42.668Z,91.80
2022-10-13T00:38:09.513Z,92.00
2022-10-13T00:40:53.955Z,92.20
2022-10-13T00:43:23.508Z,92.30
2022-10-13T00:45:51.585Z,92.40
2022-10-13T00:48:29.337Z,92.40
2022-10-13T00:50:58.374Z,92.40
2022-10-13T00:53:30.666Z,91.70
2022-10-13T00:55:57.452Z,91.70
2022-10-13T00:58:31.254Z,92.00
2022-10-13T01:00:59.210Z,92.10
2022-10-13T01:03:26.918Z,92.10
2022-10-13T01:05:57.355Z,91.60
2022-10-13T01:08:26.989Z,91.50
2022-10-13T01:11:22.736Z,91.50
2022-10-13T01:13:58.411Z,91.30
2022-10-13T01:16:39.707Z,91.50
2022-10-13T01:19:42.885Z,91.80
2022-10-13T01:22:29.812Z,91.50
2022-10-13T01:25:34.740Z,92.00
2022-10-13T01:28:29.124Z,92.50
2022-10-13T01:31:02.967Z,92.80
2022-10-13T01:33:44.929Z,93.00
2022-10-13T01:36:50.425Z,93.00
2022-10-13T01:39:28.630Z,93.10
2022-10-13T01:42:05.387Z,92.90
2022-10-13T01:44:39.417Z,92.70
2022-10-13T01:47:09.033Z,92.70
2022-10-13T01:49:36.868Z,92.40
2022-10-13T01:52:09.127Z,92.20
2022-10-13T01:54:35.952Z,92.10
2022-10-13T01:57:02.746Z,92.10
2022-10-13T01:59:33.996Z,92.00
2022-10-13T02:02:26.186Z,92.00
2022-10-13T02:05:21.500Z,91.80
2022-10-13T02:08:15.615Z,91.90
2022-10-13T02:10:58.888Z,92.10
2022-10-13T02:13:29.313Z,92.20
2022-10-13T02:16:00.258Z,92.20
2022-10-13T02:18:32.133Z,92.40
2022-10-13T02:20:59.879Z,92.60
2022-10-13T02:23:28.050Z,92.70
2022-10-13T02:25:57.280Z,92.70
2022-10-13T02:28:24.656Z,92.70
2022-10-13T02:30:51.460Z,92.60
2022-10-13T02:33:19.060Z,92.30
2022-10-13T02:35:45.875Z,91.90
2022-10-13T02:38:12.759Z,91.60
2022-10-13T02:40:39.615Z,91.60
2022-10-13T02:43:06.339Z,91.70
2022-10-13T02:45:33.093Z,91.80
2022-10-13T02:47:59.851Z,91.50
2022-10-13T02:50:26.627Z,91.70
2022-10-13T02:52:53.475Z,91.40
2022-10-13T02:55:20.358Z,91.20
2022-10-13T02:57:47.289Z,91.10
2022-10-13T03:00:14.915Z,91.70
2022-10-13T03:02:42.263Z,91.80
2022-10-13T03:05:09.783Z,91.50
2022-10-13T03:07:37.055Z,91.30
2022-10-13T03:10:05.146Z,90.80
2022-10-13T03:12:31.970Z,90.60
2022-10-13T03:14:58.707Z,90.30
2022-10-13T03:17:25.816Z,90.00
2022-10-13T03:19:52.658Z,90.10
2022-10-13T03:22:19.634Z,90.40
2022-10-13T03:24:46.607Z,90.50
2022-10-13T03:27:13.648Z,91.10
2022-10-13T03:29:40.389Z,90.80
2022-10-13T03:32:07.177Z,90.50
2022-10-13T03:34:33.944Z,90.20
2022-10-13T03:37:00.643Z,89.90
2022-10-13T03:39:27.380Z,89.80
2022-10-13T03:41:54.067Z,89.60
2022-10-13T03:44:20.860Z,89.20
2022-10-13T03:46:47.683Z,89.70
2022-10-13T03:49:14.586Z,89.20
2022-10-13T03:51:41.320Z,88.90
2022-10-13T03:54:09.867Z,88.10
2022-10-13T03:56:36.680Z,87.90
2022-10-13T03:59:05.004Z,87.80
2022-10-13T04:01:33.294Z,88.00
2022-10-13T04:04:02.495Z,87.70
2022-10-13T04:06:30.603Z,87.20
2022-10-13T04:08:57.960Z,87.10
2022-10-13T04:11:24.757Z,86.70
2022-10-13T04:13:52.426Z,87.30
2022-10-13T04:16:24.533Z,86.70
2022-10-13T04:18:54.061Z,85.60
2022-10-13T04:21:21.492Z,85.30
2022-10-13T04:23:48.566Z,85.30
2022-10-13T04:26:22.652Z,85.40
2022-10-13T04:28:51.931Z,85.80
2022-10-13T04:31:19.052Z,86.00
2022-10-13T04:33:45.901Z,86.30
2022-10-13T04:36:14.085Z,86.50
2022-10-13T04:38:42.647Z,86.50
2022-10-13T04:41:10.363Z,86.50
2022-10-13T04:43:37.113Z,86.10
2022-10-13T04:46:14.806Z,86.00
2022-10-13T04:48:42.066Z,86.10
2022-10-13T04:51:12.118Z,86.20
2022-10-13T04:53:39.326Z,86.50
2022-10-13T04:56:08.828Z,87.20
2022-10-13T04:58:37.136Z,88.20
2022-10-13T05:01:06.968Z,88.20
2022-10-13T05:03:34.580Z,90.10
2022-10-13T05:06:01.749Z,90.10
2022-10-13T05:08:28.591Z,89.60
2022-10-13T05:10:57.271Z,90.20
2022-10-13T05:13:25.373Z,90.20
2022-10-13T05:15:52.248Z,90.90
2022-10-13T05:18:19.121Z,90.90
2022-10-13T05:20:47.296Z,91.20
2022-10-13T05:23:15.608Z,91.30
2022-10-13T05:25:42.720Z,91.30
2022-10-13T05:28:09.673Z,91.70
2022-10-13T05:30:36.517Z,91.90
2022-10-13T05:33:03.348Z,91.40
2022-10-13T05:35:30.105Z,91.40
2022-10-13T05:37:56.936Z,92.00
2022-10-13T05:40:23.687Z,91.90
2022-10-13T05:42:51.266Z,91.40
2022-10-13T05:45:19.685Z,91.70
2022-10-13T05:47:46.420Z,92.00
2022-10-13T05:50:13.400Z,92.10
2022-10-13T05:52:41.082Z,92.50
2022-10-13T05:55:11.007Z,92.00
2022-10-13T05:57:42.429Z,91.80
2022-10-13T06:00:17.365Z,91.60
2022-10-13T06:03:07.349Z,91.60
2022-10-13T06:05:34.298Z,91.80
2022-10-13T06:08:01.252Z,91.20
2022-10-13T06:10:28.357Z,91.40
2022-10-13T06:12:55.036Z,91.40
2022-10-13T06:15:27.088Z,91.80
2022-10-13T06:17:54.854Z,91.70
2022-10-13T06:20:21.649Z,91.70
2022-10-13T06:22:50.323Z,91.60
2022-10-13T06:25:17.306Z,91.50
2022-10-13T06:27:44.131Z,91.70
2022-10-13T06:30:11.159Z,91.30
2022-10-13T06:32:37.972Z,91.10
2022-10-13T06:35:05.096Z,91.00
2022-10-13T06:37:31.849Z,90.80
2022-10-13T06:39:58.581Z,90.50
2022-10-13T06:42:25.738Z,90.30
2022-10-13T06:44:52.531Z,90.10
2022-10-13T06:47:19.221Z,90.30
2022-10-13T06:49:45.964Z,90.20
2022-10-13T06:52:13.354Z,90.20
2022-10-13T06:54:40.102Z,90.20
2022-10-13T06:57:06.931Z,90.00
2022-10-13T06:59:33.908Z,89.20
2022-10-13T07:02:00.628Z,90.20
2022-10-13T07:04:28.316Z,89.20
2022-10-13T07:06:55.076Z,90.40
2022-10-13T07:09:21.835Z,90.60
2022-10-13T07:11:50.147Z,90.80
2022-10-13T07:14:17.011Z,90.80
2022-10-13T07:16:43.930Z,90.60
2022-10-13T07:19:10.891Z,90.70
2022-10-13T07:21:37.645Z,90.40
2022-10-13T07:24:04.677Z,90.10
2022-10-13T07:26:33.928Z,89.70
2022-10-13T07:29:00.965Z,89.60
2022-10-13T07:31:28.266Z,89.60
2022-10-13T07:33:57.081Z,88.90
2022-10-13T07:36:24.009Z,89.30
2022-10-13T07:38:50.893Z,89.60
2022-10-13T07:41:17.827Z,89.50
2022-10-13T07:43:44.875Z,90.10
2022-10-13T07:46:13.826Z,90.10
2022-10-13T07:48:40.923Z,89.70
2022-10-13T07:51:11.288Z,89.00
2022-10-13T07:53:38.905Z,90.10
2022-10-13T07:56:08.259Z,90.30
2022-10-13T07:58:38.014Z,90.30
2022-10-13T08:01:05.453Z,90.20
2022-10-13T08:03:32.922Z,89.70
2022-10-13T08:06:01.258Z,90.00
2022-10-13T08:08:28.470Z,89.10
2022-10-13T08:10:55.798Z,90.00
2022-10-13T08:13:22.606Z,90.30
2022-10-13T08:15:49.387Z,90.10
2022-10-13T08:18:16.179Z,90.10
2022-10-13T08:20:45.055Z,90.30
2022-10-13T08:23:14.507Z,90.10
2022-10-13T08:25:42.442Z,90.50
2022-10-13T08:28:21.910Z,90.20
2022-10-13T08:30:50.372Z,90.40
2022-10-13T08:33:17.321Z,90.90
2022-10-13T08:35:44.108Z,90.50
2022-10-13T08:38:11.030Z,90.30
2022-10-13T08:40:39.136Z,90.30
2022-10-13T08:43:14.304Z,90.10
2022-10-13T08:45:42.191Z,89.00
2022-10-13T08:48:22.848Z,87.30
2022-10-13T08:50:52.508Z,86.10
2022-10-13T08:53:28.500Z,83.50
2022-10-13T08:56:02.903Z,82.30
2022-10-13T08:58:32.738Z,81.80
2022-10-13T09:01:08.587Z,80.70
2022-10-13T09:03:51.732Z,77.40
2022-10-13T09:06:28.584Z,76.20
2022-10-13T09:09:01.224Z,74.70
2022-10-13T09:11:30.850Z,73.70
2022-10-13T09:13:59.873Z,72.70
2022-10-13T09:16:46.066Z,71.30
2022-10-13T09:19:21.000Z,70.40
2022-10-13T09:21:49.340Z,69.80
2022-10-13T09:24:19.450Z,69.60
2022-10-13T09:26:48.978Z,68.90
2022-10-13T09:29:24.811Z,68.90
2022-10-13T09:32:07.981Z,68.00
2022-10-13T09:34:35.028Z,67.40
2022-10-13T09:37:04.224Z,66.60
2022-10-13T09:39:31.882Z,65.70
2022-10-13T09:42:27.139Z,63.80
2022-10-13T09:45:15.424Z,62.50
2022-10-13T09:47:50.203Z,61.50
2022-10-13T09:50:19.502Z,61.20
2022-10-13T09:52:47.648Z,60.90
2022-10-13T09:55:46.743Z,59.80
2022-10-13T09:58:19.728Z,59.80
2022-10-13T10:00:48.978Z,58.30
2022-10-13T10:03:34.680Z,58.20
2022-10-13T10:06:05.832Z,57.00
2022-10-13T10:09:02.839Z,57.00
2022-10-13T10:11:33.559Z,55.50
2022-10-13T10:14:16.992Z,54.40
2022-10-13T10:16:50.558Z,53.40
2022-10-13T10:19:32.208Z,51.20
2022-10-13T10:22:24.128Z,50.60
2022-10-13T10:25:18.999Z,50.70
2022-10-13T10:28:11.661Z,49.40
2022-10-13T10:30:48.537Z,50.10
2022-10-13T10:33:30.371Z,50.60
2022-10-13T10:36:16.822Z,50.00
2022-10-13T10:39:00.213Z,50.10
2022-10-13T10:41:41.224Z,49.70
2022-10-13T10:44:15.749Z,50.20
2022-10-13T10:46:50.422Z,49.60
2022-10-13T10:49:29.202Z,50.20
2022-10-13T10:51:56.985Z,50.30
2022-10-13T10:54:48.427Z,49.80
2022-10-13T10:57:33.593Z,48.90
2022-10-13T11:00:06.822Z,48.90
2022-10-13T11:02:52.193Z,48.20
2022-10-13T11:05:19.183Z,48.10
2022-10-13T11:07:46.499Z,48.50
2022-10-13T11:10:21.367Z,49.10
2022-10-13T11:12:50.972Z,48.80
2022-10-13T11:15:20.645Z,49.00
2022-10-13T11:17:47.433Z,49.00
2022-10-13T11:20:20.170Z,49.30
2022-10-13T11:22:59.285Z,51.10
2022-10-13T11:25:45.630Z,51.60
2022-10-13T11:28:21.817Z,50.70
2022-10-13T11:30:51.508Z,51.60
2022-10-13T11:33:39.608Z,51.80
2022-10-13T11:36:43.766Z,50.30
2022-10-13T11:39:28.892Z,50.10
2022-10-13T11:42:14.618Z,50.10
2022-10-13T11:45:00.610Z,49.70
2022-10-13T11:48:00.859Z,48.90
2022-10-13T11:50:48.494Z,48.90
2022-10-13T11:53:19.087Z,48.50
2022-10-13T11:55:54.948Z,49.00
2022-10-13T11:58:30.431Z,49.90
2022-10-13T12:01:00.271Z,49.90
2022-10-13T12:03:31.041Z,49.30
2022-10-13T12:06:04.988Z,49.10
2022-10-13T12:08:37.907Z,48.70
2022-10-13T12:11:07.628Z,48.10
2022-10-13T12:13:37.255Z,47.50
2022-10-13T12:16:06.493Z,47.60
2022-10-13T12:18:34.740Z,48.10
2022-10-13T12:21:14.280Z,48.50
2022-10-13T12:23:41.461Z,48.20
2022-10-13T12:26:13.198Z,47.80
2022-10-13T12:28:56.201Z,48.20
2022-10-13T12:31:37.999Z,49.10
2022-10-13T12:34:16.461Z,49.10
2022-10-13T12:36:46.382Z,49.10
2022-10-13T12:39:15.169Z,48.40
2022-10-13T12:41:45.998Z,48.60
2022-10-13T12:44:20.759Z,48.50
2022-10-13T12:46:58.752Z,49.20
2022-10-13T12:49:33.944Z,49.60
2022-10-13T12:52:11.368Z,49.80
2022-10-13T12:54:52.538Z,49.40
2022-10-13T12:57:35.373Z,48.60
2022-10-13T13:00:04.336Z,48.50
2022-10-13T13:02:32.971Z,48.80
2022-10-13T13:04:59.913Z,48.70
2022-10-13T13:07:36.932Z,48.30
2022-10-13T13:10:23.919Z,48.20
2022-10-13T13:12:52.718Z,49.30
2022-10-13T13:15:25.168Z,49.80
2022-10-13T13:17:58.309Z,49.90
2022-10-13T13:20:29.091Z,50.30
2022-10-13T13:22:56.110Z,50.60
2022-10-13T13:25:23.361Z,51.10
2022-10-13T13:27:50.821Z,51.10
2022-10-13T13:30:23.038Z,50.60
2022-10-13T13:32:50.050Z,51.00
2022-10-13T13:35:16.950Z,50.30
2022-10-13T13:37:49.837Z,50.90
2022-10-13T13:40:25.779Z,51.40
2022-10-13T13:42:53.283Z,51.60
2022-10-13T13:45:24.758Z,51.60
2022-10-13T13:47:51.670Z,51.40
2022-10-13T13:50:27.657Z,51.50
2022-10-13T13:52:54.642Z,51.40
2022-10-13T13:55:22.446Z,51.20
2022-10-13T13:57:49.343Z,51.00
2022-10-13T14:00:17.288Z,51.00
2022-10-13T14:02:44.883Z,51.20
2022-10-13T14:05:12.557Z,50.90
2022-10-13T14:07:40.039Z,50.80
2022-10-13T14:10:08.220Z,50.80
2022-10-13T14:12:35.138Z,50.60
2022-10-13T14:15:01.975Z,50.50
2022-10-13T14:17:29.178Z,50.50
2022-10-13T14:19:55.940Z,50.40
2022-10-13T14:22:23.266Z,49.90
2022-10-13T14:24:50.273Z,50.10
2022-10-13T14:27:17.199Z,50.00
2022-10-13T14:29:44.014Z,50.80
2022-10-13T14:32:11.009Z,50.70
2022-10-13T14:34:37.816Z,50.60
2022-10-13T14:37:04.541Z,50.60
2022-10-13T14:39:31.309Z,51.00
2022-10-13T14:41:58.042Z,51.20
2022-10-13T14:44:24.783Z,51.90
2022-10-13T14:46:51.492Z,52.00
2022-10-13T14:49:18.321Z,51.70
2022-10-13T14:51:45.081Z,52.60
2022-10-13T14:54:11.798Z,53.00
2022-10-13T14:56:38.897Z,53.30
2022-10-13T14:59:07.711Z,53.30
2022-10-13T15:01:34.680Z,53.30
2022-10-13T15:04:02.466Z,53.40
2022-10-13T15:06:29.322Z,53.40
2022-10-13T15:08:56.730Z,53.40
2022-10-13T15:11:24.750Z,53.60
2022-10-13T15:13:51.714Z,53.60
2022-10-13T15:16:21.122Z,52.80
2022-10-13T15:18:48.308Z,53.20
2022-10-13T15:21:15.765Z,53.60
2022-10-13T15:23:42.877Z,53.70
2022-10-13T15:26:11.635Z,53.90
2022-10-13T15:28:43.981Z,53.60
2022-10-13T15:31:12.797Z,54.00
2022-10-13T15:33:42.925Z,54.50
2022-10-13T15:36:09.630Z,54.70
2022-10-13T15:38:36.465Z,54.90
2022-10-13T15:41:04.916Z,55.20
2022-10-13T15:43:32.543Z,55.20
2022-10-13T15:46:04.775Z,55.30
2022-10-13T15:48:32.943Z,56.00
2022-10-13T15:50:59.968Z,56.50
2022-10-13T15:53:27.081Z,56.60
2022-10-13T15:55:53.904Z,56.60
2022-10-13T15:58:20.660Z,56.60
2022-10-13T16:00:47.477Z,56.70
2022-10-13T16:03:16.015Z,56.90
2022-10-13T16:05:46.923Z,57.50
2022-10-13T16:08:14.328Z,57.60
2022-10-13T16:10:42.387Z,57.70
2022-10-13T16:13:12.572Z,57.90
2022-10-13T16:15:39.491Z,58.40
2022-10-13T16:18:06.499Z,58.40
2022-10-13T16:20:35.382Z,58.40
2022-10-13T16:23:02.468Z,58.80
2022-10-13T16:25:30.409Z,58.90
2022-10-13T16:27:57.145Z,59.20
2022-10-13T16:30:23.826Z,59.30
2022-10-13T16:32:50.593Z,59.70
2022-10-13T16:35:17.471Z,60.00
2022-10-13T16:37:44.200Z,60.20
2022-10-13T16:40:11.377Z,61.70
2022-10-13T16:42:38.161Z,61.90
2022-10-13T16:45:05.611Z,62.20
2022-10-13T16:47:32.374Z,62.60
2022-10-13T16:49:59.098Z,62.70
2022-10-13T16:52:25.841Z,62.90
2022-10-13T16:54:52.599Z,63.60
2022-10-13T16:57:19.528Z,64.00
2022-10-13T16:59:46.415Z,65.40
2022-10-13T17:02:15.988Z,66.90
2022-10-13T17:04:43.387Z,67.40
2022-10-13T17:07:10.145Z,67.80
2022-10-13T17:09:36.844Z,68.20
2022-10-13T17:12:04.579Z,68.90
2022-10-13T17:14:31.479Z,69.60
2022-10-13T17:16:58.399Z,70.20
2022-10-13T17:19:25.423Z,70.60
2022-10-13T17:21:53.143Z,71.00
2022-10-13T17:24:19.988Z,71.50
2022-10-13T17:26:49.104Z,72.60
2022-10-13T17:29:16.104Z,72.90
2022-10-13T17:31:43.836Z,73.50
2022-10-13T17:34:10.581Z,74.80
2022-10-13T17:36:37.711Z,75.10
2022-10-13T17:39:08.849Z,75.80
2022-10-13T17:41:35.918Z,76.80
2022-10-13T17:44:03.467Z,77.60
2022-10-13T17:46:36.851Z,78.20
2022-10-13T17:49:06.152Z,78.70
2022-10-13T17:51:33.290Z,78.60
2022-10-13T17:54:00.237Z,79.30
2022-10-13T17:56:27.599Z,80.20
2022-10-13T17:58:54.948Z,81.00
2022-10-13T18:01:33.809Z,81.70
2022-10-13T18:04:06.307Z,82.00
2022-10-13T18:06:43.960Z,83.00
2022-10-13T18:09:16.078Z,84.00
2022-10-13T18:11:48.785Z,83.70
2022-10-13T18:14:18.523Z,83.00
2022-10-13T18:16:45.312Z,83.70
2022-10-13T18:19:12.270Z,83.90
2022-10-13T18:21:39.088Z,84.60
2022-10-13T18:24:06.125Z,84.50
2022-10-13T18:26:36.713Z,84.30
2022-10-13T18:29:05.928Z,83.60
2022-10-13T18:31:35.311Z,83.60
2022-10-13T18:34:04.508Z,84.30
2022-10-13T18:36:35.567Z,85.10
2022-10-13T18:39:20.690Z,85.40
2022-10-13T18:41:48.001Z,85.50
2022-10-13T18:44:15.373Z,84.70
2022-10-13T18:46:42.755Z,84.40
2022-10-13T18:49:13.004Z,84.70
2022-10-13T18:51:40.942Z,84.50
2022-10-13T18:54:08.251Z,84.30
2022-10-13T18:56:36.997Z,84.40
2022-10-13T18:59:05.278Z,84.90
2022-10-13T19:01:34.455Z,86.00
2022-10-13T19:04:01.835Z,88.00
2022-10-13T19:06:30.649Z,89.00
2022-10-13T19:09:03.602Z,89.20
2022-10-13T19:11:31.559Z,88.20
2022-10-13T19:13:59.581Z,87.00
2022-10-13T19:16:28.343Z,86.30
2022-10-13T19:18:55.253Z,86.60
2022-10-13T19:21:22.820Z,86.90
2022-10-13T19:23:50.080Z,86.60
2022-10-13T19:26:25.806Z,86.60
2022-10-13T19:28:57.107Z,86.90
2022-10-13T19:31:26.610Z,86.70
2022-10-13T19:33:55.341Z,87.30
2022-10-13T19:36:24.401Z,87.60
2022-10-13T19:38:51.530Z,87.90
2022-10-13T19:41:18.793Z,88.10
2022-10-13T19:43:45.614Z,88.30
2022-10-13T19:46:12.618Z,87.80
2022-10-13T19:48:39.481Z,88.10
2022-10-13T19:51:08.217Z,88.10
2022-10-13T19:53:36.296Z,88.40
2022-10-13T19:56:03.242Z,88.30
2022-10-13T19:58:30.137Z,88.50
2022-10-13T20:01:06.105Z,88.50
2022-10-13T20:03:32.977Z,88.70
2022-10-13T20:06:03.128Z,88.30
2022-10-13T20:08:29.887Z,87.90
2022-10-13T20:10:56.666Z,87.70
2022-10-13T20:13:23.414Z,87.90
2022-10-13T20:15:50.266Z,87.70
2022-10-13T20:18:17.146Z,88.10
2022-10-13T20:20:43.929Z,87.80
2022-10-13T20:23:10.696Z,87.80
2022-10-13T20:25:38.074Z,88.30
2022-10-13T20:28:05.565Z,88.60
2022-10-13T20:30:33.425Z,89.00
2022-10-13T20:33:00.440Z,89.40
2022-10-13T20:35:27.367Z,89.60
2022-10-13T20:37:54.201Z,89.70
2022-10-13T20:40:21.285Z,90.10
2022-10-13T20:42:52.172Z,90.20
2022-10-13T20:45:19.202Z,90.40
2022-10-13T20:47:46.978Z,90.00
2022-10-13T20:50:13.875Z,89.90
2022-10-13T20:52:40.754Z,90.10
2022-10-13T20:55:07.807Z,90.10
2022-10-13T20:57:34.496Z,89.90
2022-10-13T21:00:01.246Z,89.60
2022-10-13T21:02:28.004Z,89.50
2022-10-13T21:04:54.708Z,89.30
2022-10-13T21:07:21.788Z,88.70
2022-10-13T21:09:53.686Z,88.80
2022-10-13T21:12:21.235Z,88.60
2022-10-13T21:14:48.019Z,88.20
2022-10-13T21:17:14.787Z,88.00
2022-10-13T21:19:41.485Z,88.60
2022-10-13T21:22:08.231Z,89.00
2022-10-13T21:24:34.955Z,89.00
2022-10-13T21:27:01.738Z,89.70
2022-10-13T21:29:28.620Z,90.00
2022-10-13T21:31:55.385Z,90.20
2022-10-13T21:34:22.106Z,90.20
2022-10-13T21:36:48.876Z,90.00
2022-10-13T21:39:15.637Z,90.00
2022-10-13T21:41:42.433Z,90.10
2022-10-13T21:44:13.081Z,89.70
2022-10-13T21:46:39.830Z,90.00
2022-10-13T21:49:06.544Z,90.50
2022-10-13T21:51:37.271Z,91.20
2022-10-13T21:54:07.004Z,91.10
2022-10-13T21:56:34.849Z,91.60
2022-10-13T21:59:02.100Z,91.90
2022-10-13T22:01:29.487Z,92.40
2022-10-13T22:03:58.709Z,92.50
2022-10-13T22:06:26.079Z,92.90
2022-10-13T22:08:55.154Z,92.70
2022-10-13T22:11:24.305Z,92.80
2022-10-13T22:13:51.520Z,93.30
2022-10-13T22:16:21.492Z,93.00
2022-10-13T22:18:53.036Z,93.40
2022-10-13T22:21:23.964Z,93.70
2022-10-13T22:23:50.683Z,93.70
2022-10-13T22:26:18.709Z,94.00
2022-10-13T22:28:45.574Z,94.10
2022-10-13T22:31:13.324Z,94.10
2022-10-13T22:33:42.133Z,94.10
2022-10-13T22:36:14.394Z,93.70
2022-10-13T22:38:41.421Z,93.60
2022-10-13T22:41:08.780Z,93.20
2022-10-13T22:43:36.632Z,93.00
2022-10-13T22:46:04.670Z,92.60
2022-10-13T22:48:36.972Z,92.20
2022-10-13T22:51:07.383Z,91.60
2022-10-13T22:53:34.626Z,91.30
2022-10-13T22:56:10.598Z,91.20
2022-10-13T22:58:37.321Z,91.00
2022-10-13T23:01:23.182Z,90.80
2022-10-13T23:03:51.799Z,90.80
2022-10-13T23:06:21.380Z,90.70
2022-10-13T23:08:48.824Z,90.90
2022-10-13T23:11:16.932Z,91.10
2022-10-13T23:13:43.772Z,91.10
2022-10-13T23:16:16.572Z,91.00
2022-10-13T23:18:43.711Z,91.10
2022-10-13T23:21:17.279Z,91.10
2022-10-13T23:23:44.387Z,91.30
2022-10-13T23:26:13.927Z,91.40
2022-10-13T23:28:41.577Z,91.50
2022-10-13T23:31:13.810Z,91.90
2022-10-13T23:33:41.031Z,92.00
2022-10-13T23:36:08.677Z,92.40
2022-10-13T23:38:35.388Z,92.40
2022-10-13T23:41:07.318Z,92.50
2022-10-13T23:43:34.263Z,92.70
2022-10-13T23:46:01.304Z,92.80
2022-10-13T23:48:28.402Z,92.60
2022-10-13T23:50:55.249Z,92.70
2022-10-13T23:53:22.002Z,92.90
2022-10-13T23:55:48.786Z,92.90
2022-10-13T23:58:15.588Z,93.30
